createdAt,value
2019-01-21T00:00:46.013Z,92.53
2019-01-21T00:03:14.923Z,114.77
2019-01-21T00:05:41.463Z,96.97
2019-01-21T00:08:08.922Z,113.90
2019-01-21T00:10:35.381Z,113.03
2019-01-21T00:13:01.718Z,107.27
2019-01-21T00:15:28.137Z,119.67
2019-01-21T00:17:54.496Z,136.10
2019-01-21T00:20:20.963Z,102.00
2019-01-21T00:22:47.383Z,103.70
2019-01-21T00:25:13.753Z,76.10
2019-01-21T00:27:41.287Z,86.43
2019-01-21T00:30:09.967Z,82.17
2019-01-21T00:32:36.407Z,98.00
2019-01-21T00:35:05.023Z,86.43
2019-01-21T00:37:31.399Z,91.43
2019-01-21T00:39:57.865Z,90.70
2019-01-21T00:42:24.272Z,91.80
2019-01-21T00:44:50.841Z,86.43
2019-01-21T00:47:17.561Z,68.47
2019-01-21T00:49:44.056Z,77.80
2019-01-21T00:52:10.529Z,87.70
2019-01-21T00:54:36.897Z,86.77
2019-01-21T00:57:03.427Z,64.67
2019-01-21T00:59:29.764Z,52.67
2019-01-21T01:01:56.230Z,64.03
2019-01-21T01:04:22.656Z,53.30
2019-01-21T01:06:49.182Z,54.20
2019-01-21T01:09:15.656Z,60.67
2019-01-21T01:11:42.084Z,59.33
2019-01-21T01:14:08.561Z,52.83
2019-01-21T01:16:34.966Z,57.90
2019-01-21T01:19:01.437Z,54.67
2019-01-21T01:21:27.874Z,59.47
2019-01-21T01:23:54.426Z,68.97
2019-01-21T01:26:20.917Z,60.23
2019-01-21T01:28:47.307Z,63.90
2019-01-21T01:31:13.811Z,62.53
2019-01-21T01:33:40.230Z,63.03
2019-01-21T01:36:06.740Z,53.07
2019-01-21T01:38:33.161Z,56.13
2019-01-21T01:40:59.685Z,54.87
2019-01-21T01:43:26.212Z,58.50
2019-01-21T01:45:52.593Z,63.67
2019-01-21T01:48:19.055Z,68.77
2019-01-21T01:50:45.445Z,59.83
2019-01-21T01:53:12.103Z,69.60
2019-01-21T01:55:38.598Z,55.37
2019-01-21T01:58:05.047Z,57.97
2019-01-21T02:00:32.597Z,48.57
2019-01-21T02:02:59.087Z,52.50
2019-01-21T02:05:25.667Z,43.13
2019-01-21T02:07:52.225Z,46.33
2019-01-21T02:10:18.704Z,49.17
2019-01-21T02:12:45.392Z,41.77
2019-01-21T02:15:13.849Z,59.27
2019-01-21T02:17:40.247Z,47.10
2019-01-21T02:20:14.830Z,45.63
2019-01-21T02:22:42.864Z,43.77
2019-01-21T02:25:09.933Z,40.87
2019-01-21T02:27:42.936Z,43.57
2019-01-21T02:30:22.099Z,50.23
2019-01-21T02:33:00.636Z,51.20
2019-01-21T02:35:33.683Z,46.30
2019-01-21T02:38:12.250Z,54.83
2019-01-21T02:40:45.212Z,52.33
2019-01-21T02:43:30.840Z,48.53
2019-01-21T02:46:13.552Z,45.87
2019-01-21T02:48:49.531Z,45.57
2019-01-21T02:51:36.711Z,47.33
2019-01-21T02:54:10.009Z,54.07
2019-01-21T02:56:52.155Z,48.03
2019-01-21T02:59:34.045Z,43.67
2019-01-21T03:02:21.076Z,48.07
2019-01-21T03:05:25.501Z,48.70
2019-01-21T03:08:02.119Z,44.57
2019-01-21T03:10:51.470Z,47.77
2019-01-21T03:13:30.676Z,51.33
2019-01-21T03:16:00.931Z,50.10
2019-01-21T03:18:31.536Z,58.47
2019-01-21T03:21:24.843Z,43.83
2019-01-21T03:24:13.497Z,51.30
2019-01-21T03:26:46.650Z,46.20
2019-01-21T03:29:22.992Z,47.73
2019-01-21T03:32:12.483Z,53.80
2019-01-21T03:34:58.116Z,41.17
2019-01-21T03:37:28.342Z,38.63
2019-01-21T03:40:02.121Z,42.93
2019-01-21T03:42:44.576Z,45.47
2019-01-21T03:45:34.463Z,62.60
2019-01-21T03:48:16.433Z,39.97
2019-01-21T03:50:51.112Z,38.17
2019-01-21T03:53:39.618Z,38.30
2019-01-21T03:56:07.924Z,38.57
2019-01-21T03:58:44.349Z,41.30
2019-01-21T04:01:17.380Z,40.03
2019-01-21T04:03:59.703Z,41.00
2019-01-21T04:06:29.913Z,44.30
2019-01-21T04:09:14.785Z,44.07
2019-01-21T04:11:54.710Z,47.20
2019-01-21T04:14:36.923Z,47.20
2019-01-21T04:17:36.473Z,42.97
2019-01-21T04:20:09.709Z,46.13
2019-01-21T04:22:42.697Z,44.33
2019-01-21T04:25:13.062Z,48.67
2019-01-21T04:27:57.829Z,44.00
2019-01-21T04:30:46.569Z,43.50
2019-01-21T04:33:28.645Z,37.70
2019-01-21T04:36:04.952Z,43.97
2019-01-21T04:38:38.161Z,44.67
2019-01-21T04:41:08.380Z,49.87
2019-01-21T04:43:50.109Z,44.73
2019-01-21T04:46:23.135Z,48.83
2019-01-21T04:49:13.342Z,42.97
2019-01-21T04:51:58.618Z,45.80
2019-01-21T04:54:40.664Z,45.87
2019-01-21T04:57:26.621Z,50.60
2019-01-21T05:00:02.782Z,49.30
2019-01-21T05:02:52.648Z,47.60
2019-01-21T05:05:28.929Z,47.60
2019-01-21T05:08:19.320Z,55.40
2019-01-21T05:10:49.601Z,53.67
2019-01-21T05:13:28.865Z,49.10
2019-01-21T05:16:07.793Z,49.43
2019-01-21T05:18:50.046Z,46.33
2019-01-21T05:21:41.835Z,46.23
2019-01-21T05:24:24.048Z,41.80
2019-01-21T05:27:09.313Z,42.97
2019-01-21T05:30:00.920Z,50.53
2019-01-21T05:32:36.928Z,51.73
2019-01-21T05:35:28.518Z,47.47
2019-01-21T05:38:07.433Z,54.17
2019-01-21T05:40:46.763Z,46.87
2019-01-21T05:43:50.578Z,48.37
2019-01-21T05:46:29.950Z,45.77
2019-01-21T05:49:24.592Z,52.63
2019-01-21T05:52:24.199Z,55.77
2019-01-21T05:55:20.611Z,46.63
2019-01-21T05:58:13.444Z,44.70
2019-01-21T06:00:55.779Z,50.63
2019-01-21T06:03:41.352Z,54.87
2019-01-21T06:06:14.222Z,53.93
2019-01-21T06:08:50.422Z,52.37
2019-01-21T06:11:28.983Z,60.10
2019-01-21T06:14:05.274Z,58.00
2019-01-21T06:16:50.669Z,58.37
2019-01-21T06:19:20.851Z,58.97
2019-01-21T06:21:56.649Z,56.43
2019-01-21T06:24:35.205Z,52.77
2019-01-21T06:27:29.267Z,53.07
2019-01-21T06:30:17.942Z,49.03
2019-01-21T06:33:07.420Z,53.87
2019-01-21T06:35:37.642Z,51.43
2019-01-21T06:38:16.817Z,52.10
2019-01-21T06:40:59.125Z,59.93
2019-01-21T06:43:56.678Z,47.00
2019-01-21T06:46:56.093Z,55.00
2019-01-21T06:49:28.900Z,65.70
2019-01-21T06:52:08.109Z,48.27
2019-01-21T06:54:56.011Z,52.97
2019-01-21T06:57:43.833Z,53.20
2019-01-21T07:00:35.476Z,58.00
2019-01-21T07:03:17.586Z,71.53
2019-01-21T07:05:56.531Z,66.87
2019-01-21T07:08:32.589Z,62.93
2019-01-21T07:11:23.561Z,64.13
2019-01-21T07:13:53.863Z,84.30
2019-01-21T07:16:27.889Z,69.83
2019-01-21T07:19:24.325Z,96.33
2019-01-21T07:22:03.466Z,83.53
2019-01-21T07:24:45.549Z,84.57
2019-01-21T07:27:35.659Z,79.73
2019-01-21T07:30:11.521Z,64.77
2019-01-21T07:32:44.476Z,82.87
2019-01-21T07:35:20.433Z,74.90
2019-01-21T07:37:56.730Z,81.47
2019-01-21T07:40:32.916Z,68.03
2019-01-21T07:43:11.963Z,74.73
2019-01-21T07:45:56.979Z,72.37
2019-01-21T07:48:45.263Z,77.40
2019-01-21T07:51:21.684Z,70.53
2019-01-21T07:53:54.819Z,80.87
2019-01-21T07:56:41.880Z,68.10
2019-01-21T07:59:28.746Z,70.40
2019-01-21T08:02:07.933Z,64.43
2019-01-21T08:04:40.952Z,84.40
2019-01-21T08:07:11.145Z,73.87
2019-01-21T08:09:50.549Z,71.37
2019-01-21T08:12:26.867Z,75.43
2019-01-21T08:15:00.409Z,83.93
2019-01-21T08:17:42.324Z,59.93
2019-01-21T08:20:12.511Z,55.50
2019-01-21T08:22:58.381Z,62.93
2019-01-21T08:25:40.677Z,116.30
2019-01-21T08:28:27.448Z,60.90
2019-01-21T08:31:00.884Z,109.17
2019-01-21T08:33:37.359Z,186.60
2019-01-21T08:36:07.668Z,93.03
2019-01-21T08:38:41.637Z,60.23
2019-01-21T08:41:21.645Z,62.53
2019-01-21T08:43:57.992Z,60.47
2019-01-21T08:46:40.177Z,66.03
2019-01-21T08:49:17.160Z,68.90
2019-01-21T08:52:11.193Z,61.23
2019-01-21T08:54:58.350Z,51.97
2019-01-21T08:57:37.608Z,50.83
2019-01-21T09:00:16.252Z,60.43
2019-01-21T09:03:06.509Z,55.67
2019-01-21T09:05:39.711Z,65.03
2019-01-21T09:08:10.081Z,54.83
2019-01-21T09:10:46.009Z,60.20
2019-01-21T09:13:42.426Z,65.10
2019-01-21T09:16:21.616Z,58.37
2019-01-21T09:19:01.054Z,54.07
2019-01-21T09:21:31.533Z,44.87
2019-01-21T09:24:18.495Z,53.00
2019-01-21T09:26:54.343Z,45.87
2019-01-21T09:29:34.075Z,62.30
2019-01-21T09:32:04.678Z,57.17
2019-01-21T09:35:04.408Z,56.73
2019-01-21T09:37:40.817Z,49.23
2019-01-21T09:40:27.319Z,39.50
2019-01-21T09:43:12.794Z,48.33
2019-01-21T09:46:00.083Z,49.10
2019-01-21T09:48:26.733Z,45.93
2019-01-21T09:50:56.210Z,52.23
2019-01-21T09:53:22.780Z,52.77
2019-01-21T09:55:49.979Z,54.87
2019-01-21T09:58:19.327Z,46.40
2019-01-21T10:00:46.226Z,50.23
2019-01-21T10:03:13.751Z,50.03
2019-01-21T10:05:43.340Z,55.90
2019-01-21T10:08:26.100Z,59.30
2019-01-21T10:11:03.331Z,54.67
2019-01-21T10:14:06.244Z,52.33
2019-01-21T10:16:37.379Z,57.60
2019-01-21T10:19:26.240Z,59.63
2019-01-21T10:22:08.836Z,62.13
2019-01-21T10:24:54.573Z,72.50
2019-01-21T10:27:43.821Z,64.23
2019-01-21T10:30:20.663Z,64.63
2019-01-21T10:33:10.079Z,62.37
2019-01-21T10:35:55.453Z,53.00
2019-01-21T10:38:59.523Z,46.90
2019-01-21T10:41:35.660Z,56.63
2019-01-21T10:44:18.511Z,58.37
2019-01-21T10:47:12.595Z,57.97
2019-01-21T10:49:45.743Z,51.40
2019-01-21T10:52:36.912Z,53.07
2019-01-21T10:55:09.851Z,56.97
2019-01-21T10:57:47.124Z,59.63
2019-01-21T11:00:38.425Z,56.63
2019-01-21T11:03:18.072Z,56.20
2019-01-21T11:05:51.339Z,56.83
2019-01-21T11:08:38.139Z,56.23
2019-01-21T11:11:28.891Z,60.03
2019-01-21T11:14:32.815Z,61.97
2019-01-21T11:17:22.180Z,65.57
2019-01-21T11:20:03.761Z,54.80
2019-01-21T11:22:29.904Z,60.30
2019-01-21T11:25:06.265Z,61.83
2019-01-21T11:27:48.083Z,61.83
2019-01-21T11:30:26.941Z,69.30
2019-01-21T11:33:20.168Z,71.53
2019-01-21T11:36:05.386Z,69.23
2019-01-21T11:38:47.603Z,64.37
2019-01-21T11:41:17.759Z,74.30
2019-01-21T11:44:07.813Z,68.40
2019-01-21T11:46:43.472Z,78.83
2019-01-21T11:49:13.705Z,74.40
2019-01-21T11:51:55.981Z,79.70
2019-01-21T11:54:49.278Z,81.03
2019-01-21T11:57:34.953Z,70.53
2019-01-21T12:00:07.782Z,73.53
2019-01-21T12:02:53.045Z,81.57
2019-01-21T12:05:23.464Z,85.13
2019-01-21T12:07:59.635Z,92.97
2019-01-21T12:10:45.193Z,77.17
2019-01-21T12:13:33.422Z,88.77
2019-01-21T12:16:25.251Z,75.17
2019-01-21T12:19:28.943Z,69.33
2019-01-21T12:22:04.864Z,85.23
2019-01-21T12:24:31.457Z,75.40
2019-01-21T12:27:36.280Z,89.07
2019-01-21T12:30:27.652Z,82.63
2019-01-21T12:33:31.778Z,88.20
2019-01-21T12:36:04.806Z,98.37
2019-01-21T12:38:46.893Z,94.40
2019-01-21T12:41:26.484Z,87.83
2019-01-21T12:44:19.107Z,94.63
2019-01-21T12:46:58.587Z,91.43
2019-01-21T12:49:40.502Z,93.73
2019-01-21T12:52:13.609Z,84.03
2019-01-21T12:54:56.614Z,88.27
2019-01-21T12:57:44.658Z,88.37
2019-01-21T13:00:17.766Z,86.33
2019-01-21T13:03:11.837Z,87.27
2019-01-21T13:05:44.899Z,88.17
2019-01-21T13:08:30.077Z,86.53
2019-01-21T13:11:06.532Z,99.77
2019-01-21T13:13:42.767Z,89.63
2019-01-21T13:16:12.983Z,92.93
2019-01-21T13:19:05.954Z,98.00
2019-01-21T13:21:52.862Z,103.50
2019-01-21T13:24:31.893Z,100.87
2019-01-21T13:27:21.975Z,101.37
2019-01-21T13:29:50.783Z,99.10
2019-01-21T13:32:20.981Z,107.33
2019-01-21T13:35:00.462Z,100.10
2019-01-21T13:37:36.576Z,101.17
2019-01-21T13:40:29.976Z,89.63
2019-01-21T13:43:19.936Z,95.03
2019-01-21T13:46:23.711Z,104.87
2019-01-21T13:48:56.906Z,93.70
2019-01-21T13:51:46.926Z,99.43
2019-01-21T13:54:36.682Z,95.73
2019-01-21T13:57:13.312Z,104.43
2019-01-21T13:59:46.653Z,99.27
2019-01-21T14:02:16.930Z,96.93
2019-01-21T14:05:05.284Z,97.50
2019-01-21T14:07:35.718Z,99.97
2019-01-21T14:10:07.253Z,94.67
2019-01-21T14:12:38.513Z,104.53
2019-01-21T14:15:31.662Z,99.10
2019-01-21T14:18:18.729Z,117.80
2019-01-21T14:21:11.886Z,116.40
2019-01-21T14:23:56.918Z,122.90
2019-01-21T14:26:29.951Z,115.80
2019-01-21T14:29:08.880Z,115.17
2019-01-21T14:31:45.226Z,121.50
2019-01-21T14:34:30.593Z,118.17
2019-01-21T14:37:37.264Z,115.07
2019-01-21T14:40:10.445Z,120.30
2019-01-21T14:42:55.593Z,116.30
2019-01-21T14:45:43.422Z,110.50
2019-01-21T14:48:29.088Z,100.40
2019-01-21T14:50:59.506Z,106.03
2019-01-21T14:53:35.886Z,108.30
2019-01-21T14:56:12.236Z,107.60
2019-01-21T14:58:42.457Z,128.47
2019-01-21T15:01:12.796Z,110.00
2019-01-21T15:03:59.628Z,104.43
2019-01-21T15:06:35.770Z,93.40
2019-01-21T15:09:18.212Z,102.77
2019-01-21T15:11:51.202Z,94.67
2019-01-21T15:14:39.825Z,108.80
2019-01-21T15:17:16.073Z,102.27
2019-01-21T15:19:43.260Z,95.77
2019-01-21T15:22:31.700Z,98.57
2019-01-21T15:25:11.134Z,111.40
2019-01-21T15:27:52.806Z,92.77
2019-01-21T15:30:40.996Z,102.47
2019-01-21T15:33:11.518Z,108.93
2019-01-21T15:35:44.579Z,109.70
2019-01-21T15:38:20.970Z,104.57
2019-01-21T15:41:06.032Z,100.20
2019-01-21T15:43:51.477Z,101.50
2019-01-21T15:46:36.838Z,116.37
2019-01-21T15:49:16.144Z,106.60
2019-01-21T15:52:01.226Z,109.27
2019-01-21T15:54:44.668Z,104.97
2019-01-21T15:57:38.694Z,111.27
2019-01-21T16:00:25.565Z,117.30
2019-01-21T16:02:58.757Z,127.87
2019-01-21T16:05:28.964Z,135.77
2019-01-21T16:08:01.867Z,133.17
2019-01-21T16:10:44.351Z,111.83
2019-01-21T16:13:20.701Z,132.27
2019-01-21T16:16:22.950Z,119.57
2019-01-21T16:18:56.171Z,132.83
2019-01-21T16:21:44.412Z,140.17
2019-01-21T16:24:20.872Z,138.77
2019-01-21T16:26:51.090Z,124.03
2019-01-21T16:29:21.336Z,132.47
2019-01-21T16:31:50.840Z,140.63
2019-01-21T16:34:24.031Z,162.40
2019-01-21T16:36:57.287Z,148.00
2019-01-21T16:39:44.424Z,128.63
2019-01-21T16:42:13.659Z,135.87
2019-01-21T16:44:41.353Z,128.40
2019-01-21T16:47:07.706Z,128.90
2019-01-21T16:49:34.521Z,122.47
2019-01-21T16:52:01.331Z,124.07
2019-01-21T16:54:27.837Z,124.57
2019-01-21T16:56:54.474Z,120.97
2019-01-21T16:59:22.085Z,116.47
2019-01-21T17:01:48.645Z,114.17
2019-01-21T17:04:15.096Z,111.03
2019-01-21T17:06:41.556Z,121.37
2019-01-21T17:09:09.935Z,117.50
2019-01-21T17:11:36.757Z,116.93
2019-01-21T17:14:05.329Z,119.17
2019-01-21T17:16:31.704Z,107.07
2019-01-21T17:18:58.231Z,125.77
2019-01-21T17:21:27.039Z,117.33
2019-01-21T17:23:52.857Z,116.57
2019-01-21T17:26:19.221Z,128.07
2019-01-21T17:28:45.753Z,144.60
2019-01-21T17:31:12.114Z,127.40
2019-01-21T17:33:38.595Z,136.53
2019-01-21T17:36:05.378Z,131.10
2019-01-21T17:38:32.410Z,134.93
2019-01-21T17:40:59.542Z,127.37
2019-01-21T17:43:26.008Z,127.47
2019-01-21T17:45:52.711Z,135.50
2019-01-21T17:48:20.052Z,137.27
2019-01-21T17:50:46.624Z,124.90
2019-01-21T17:53:12.998Z,126.63
2019-01-21T17:55:39.399Z,124.63
2019-01-21T17:58:05.921Z,125.60
2019-01-21T18:00:32.383Z,124.60
2019-01-21T18:02:59.838Z,119.23
2019-01-21T18:05:26.690Z,131.23
2019-01-21T18:07:53.428Z,157.47
2019-01-21T18:10:20.982Z,165.67
2019-01-21T18:12:48.654Z,137.27
2019-01-21T18:15:15.201Z,123.30
2019-01-21T18:17:41.661Z,122.73
2019-01-21T18:20:11.525Z,129.17
2019-01-21T18:22:37.950Z,126.63
2019-01-21T18:25:07.179Z,110.70
2019-01-21T18:27:33.514Z,106.83
2019-01-21T18:30:01.800Z,118.63
2019-01-21T18:32:28.909Z,117.00
2019-01-21T18:34:55.373Z,115.67
2019-01-21T18:37:21.777Z,117.60
2019-01-21T18:39:50.225Z,106.87
2019-01-21T18:42:16.559Z,105.00
2019-01-21T18:44:42.990Z,105.33
2019-01-21T18:47:09.399Z,101.13
2019-01-21T18:49:35.943Z,108.73
2019-01-21T18:52:02.368Z,119.87
2019-01-21T18:54:29.015Z,109.37
2019-01-21T18:56:55.515Z,108.70
2019-01-21T18:59:21.941Z,114.63
2019-01-21T19:01:48.362Z,113.63
2019-01-21T19:04:14.764Z,111.10
2019-01-21T19:06:41.156Z,102.33
2019-01-21T19:09:07.642Z,118.20
2019-01-21T19:11:34.491Z,117.93
2019-01-21T19:14:00.958Z,103.70
2019-01-21T19:16:27.408Z,99.17
2019-01-21T19:18:53.781Z,103.73
2019-01-21T19:21:21.503Z,98.03
2019-01-21T19:23:48.062Z,96.23
2019-01-21T19:26:16.356Z,105.60
2019-01-21T19:28:43.380Z,146.13
2019-01-21T19:31:10.991Z,105.20
2019-01-21T19:33:37.635Z,100.73
2019-01-21T19:36:04.193Z,113.30
2019-01-21T19:38:31.240Z,107.20
2019-01-21T19:40:58.646Z,107.83
2019-01-21T19:43:25.543Z,104.27
2019-01-21T19:45:52.204Z,104.53
2019-01-21T19:48:19.443Z,102.10
2019-01-21T19:50:46.883Z,111.57
2019-01-21T19:53:13.350Z,108.50
2019-01-21T19:55:40.887Z,110.90
2019-01-21T19:58:07.954Z,107.43
2019-01-21T20:00:34.749Z,97.83
2019-01-21T20:03:01.243Z,96.70
2019-01-21T20:05:27.666Z,115.37
2019-01-21T20:07:54.330Z,112.63
2019-01-21T20:10:22.627Z,98.20
2019-01-21T20:12:49.493Z,119.43
2019-01-21T20:15:17.356Z,116.23
2019-01-21T20:17:43.934Z,119.70
2019-01-21T20:20:13.813Z,112.93
2019-01-21T20:22:40.261Z,109.20
2019-01-21T20:25:08.842Z,107.20
2019-01-21T20:27:35.280Z,109.63
2019-01-21T20:30:01.800Z,110.23
2019-01-21T20:32:28.403Z,118.13
2019-01-21T20:34:54.816Z,109.63
2019-01-21T20:37:21.221Z,114.20
2019-01-21T20:39:48.360Z,108.03
2019-01-21T20:42:15.551Z,124.70
2019-01-21T20:44:42.432Z,107.70
2019-01-21T20:47:08.879Z,110.47
2019-01-21T20:49:35.711Z,117.87
2019-01-21T20:52:03.436Z,123.93
2019-01-21T20:54:29.992Z,124.30
2019-01-21T20:56:56.456Z,118.23
2019-01-21T20:59:22.815Z,132.90
2019-01-21T21:01:49.255Z,122.90
2019-01-21T21:04:15.697Z,121.17
2019-01-21T21:06:42.436Z,122.07
2019-01-21T21:09:08.957Z,121.37
2019-01-21T21:11:35.757Z,118.33
2019-01-21T21:14:03.144Z,123.30
2019-01-21T21:16:30.723Z,116.80
2019-01-21T21:18:57.301Z,119.40
2019-01-21T21:21:24.331Z,119.37
2019-01-21T21:23:52.104Z,128.57
2019-01-21T21:26:19.742Z,132.30
2019-01-21T21:28:47.360Z,124.97
2019-01-21T21:31:15.415Z,136.33
2019-01-21T21:33:43.144Z,154.63
2019-01-21T21:36:10.732Z,127.07
2019-01-21T21:38:39.823Z,136.77
2019-01-21T21:41:07.454Z,138.83
2019-01-21T21:43:34.679Z,123.77
2019-01-21T21:46:03.129Z,139.47
2019-01-21T21:48:31.828Z,138.90
2019-01-21T21:51:00.522Z,130.33
2019-01-21T21:53:28.018Z,131.10
2019-01-21T21:55:55.436Z,137.47
2019-01-21T21:58:22.762Z,144.40
2019-01-21T22:00:49.469Z,143.57
2019-01-21T22:03:16.159Z,138.63
2019-01-21T22:05:42.750Z,138.70
2019-01-21T22:08:09.352Z,138.33
2019-01-21T22:10:35.915Z,137.27
2019-01-21T22:13:02.907Z,142.63
2019-01-21T22:15:29.480Z,139.50
2019-01-21T22:17:56.547Z,160.20
2019-01-21T22:20:24.598Z,150.23
2019-01-21T22:22:51.100Z,181.23
2019-01-21T22:25:18.003Z,156.27
2019-01-21T22:27:44.358Z,152.00
2019-01-21T22:30:19.006Z,162.87
2019-01-21T22:32:45.407Z,166.00
2019-01-21T22:35:11.997Z,167.50
2019-01-21T22:37:38.430Z,166.73
2019-01-21T22:40:11.422Z,164.70
2019-01-21T22:42:38.314Z,162.07
2019-01-21T22:45:07.212Z,167.70
2019-01-21T22:47:34.763Z,177.27
2019-01-21T22:50:02.103Z,168.17
2019-01-21T22:52:30.180Z,173.17
2019-01-21T22:54:57.198Z,176.17
2019-01-21T22:57:24.652Z,171.83
2019-01-21T22:59:53.069Z,165.93
2019-01-21T23:02:20.752Z,169.83
2019-01-21T23:04:48.318Z,170.50
2019-01-21T23:07:15.974Z,180.13
2019-01-21T23:09:42.899Z,170.40
2019-01-21T23:12:10.192Z,173.43
2019-01-21T23:14:37.510Z,178.53
2019-01-21T23:17:06.851Z,179.07
2019-01-21T23:19:33.884Z,166.17
2019-01-21T23:22:00.697Z,177.53
2019-01-21T23:24:27.023Z,192.73
2019-01-21T23:26:53.523Z,196.90
2019-01-21T23:29:20.811Z,184.37
2019-01-21T23:31:48.643Z,174.60
2019-01-21T23:34:15.824Z,171.80
2019-01-21T23:36:42.831Z,189.37
2019-01-21T23:39:09.269Z,191.07
2019-01-21T23:41:35.774Z,193.80
2019-01-21T23:44:02.161Z,191.90
2019-01-21T23:46:28.514Z,176.40
2019-01-21T23:48:54.907Z,179.97
2019-01-21T23:51:21.246Z,190.50
2019-01-21T23:53:47.931Z,190.50
2019-01-21T23:56:14.344Z,182.03
2019-01-21T23:58:40.710Z,202.00
